sensor_id;sensor_type;location;lat;lon;timestamp;P1;durP1;ratioP1;P2;durP2;ratioP2
37275;SDS011;23166;51.150;21.620;2022-07-10T00:00:44;4.15;;;2.35;;
37275;SDS011;23166;51.150;21.620;2022-07-10T00:03:11;2.80;;;2.40;;
37275;SDS011;23166;51.150;21.620;2022-07-10T00:05:37;3.10;;;2.05;;
37275;SDS011;23166;51.150;21.620;2022-07-10T00:08:03;4.47;;;2.30;;
37275;SDS011;23166;51.150;21.620;2022-07-10T00:10:30;4.62;;;2.35;;
37275;SDS011;23166;51.150;21.620;2022-07-10T00:12:58;2.12;;;1.92;;
37275;SDS011;23166;51.150;21.620;2022-07-10T00:15:24;5.05;;;2.35;;
37275;SDS011;23166;51.150;21.620;2022-07-10T00:17:51;5.47;;;2.58;;
37275;SDS011;23166;51.150;21.620;2022-07-10T00:20:17;4.37;;;2.80;;
37275;SDS011;23166;51.150;21.620;2022-07-10T00:22:44;5.92;;;2.35;;
37275;SDS011;23166;51.150;21.620;2022-07-10T00:25:11;4.33;;;2.50;;
37275;SDS011;23166;51.150;21.620;2022-07-10T00:27:39;6.72;;;2.77;;
37275;SDS011;23166;51.150;21.620;2022-07-10T00:30:07;3.17;;;2.12;;
37275;SDS011;23166;51.150;21.620;2022-07-10T00:32:35;3.25;;;2.52;;
37275;SDS011;23166;51.150;21.620;2022-07-10T00:35:01;3.15;;;1.95;;
37275;SDS011;23166;51.150;21.620;2022-07-10T00:37:28;4.42;;;2.60;;
37275;SDS011;23166;51.150;21.620;2022-07-10T00:39:54;4.45;;;2.02;;
37275;SDS011;23166;51.150;21.620;2022-07-10T00:42:21;3.77;;;1.75;;
37275;SDS011;23166;51.150;21.620;2022-07-10T00:44:48;2.35;;;2.10;;
37275;SDS011;23166;51.150;21.620;2022-07-10T00:47:14;5.42;;;1.95;;
37275;SDS011;23166;51.150;21.620;2022-07-10T00:49:42;5.05;;;2.42;;
37275;SDS011;23166;51.150;21.620;2022-07-10T00:52:12;2.85;;;2.20;;
37275;SDS011;23166;51.150;21.620;2022-07-10T00:54:42;3.83;;;2.27;;
37275;SDS011;23166;51.150;21.620;2022-07-10T00:57:10;3.95;;;2.75;;
37275;SDS011;23166;51.150;21.620;2022-07-10T00:59:40;4.97;;;2.20;;
37275;SDS011;23166;51.150;21.620;2022-07-10T01:02:06;2.95;;;2.00;;
37275;SDS011;23166;51.150;21.620;2022-07-10T01:04:33;3.98;;;2.05;;
37275;SDS011;23166;51.150;21.620;2022-07-10T01:07:00;4.67;;;2.40;;
37275;SDS011;23166;51.150;21.620;2022-07-10T01:09:26;5.53;;;2.15;;
37275;SDS011;23166;51.150;21.620;2022-07-10T01:11:56;4.17;;;2.22;;
37275;SDS011;23166;51.150;21.620;2022-07-10T01:14:26;3.90;;;2.77;;
37275;SDS011;23166;51.150;21.620;2022-07-10T01:16:54;2.12;;;1.40;;
37275;SDS011;23166;51.150;21.620;2022-07-10T01:19:20;3.25;;;2.33;;
37275;SDS011;23166;51.150;21.620;2022-07-10T01:21:47;2.12;;;1.52;;
37275;SDS011;23166;51.150;21.620;2022-07-10T01:24:13;2.27;;;1.50;;
37275;SDS011;23166;51.150;21.620;2022-07-10T01:26:39;4.80;;;2.05;;
37275;SDS011;23166;51.150;21.620;2022-07-10T01:29:08;3.92;;;1.80;;
37275;SDS011;23166;51.150;21.620;2022-07-10T01:31:36;3.62;;;2.02;;
37275;SDS011;23166;51.150;21.620;2022-07-10T01:34:04;2.55;;;1.80;;
37275;SDS011;23166;51.150;21.620;2022-07-10T01:36:32;2.10;;;1.90;;
37275;SDS011;23166;51.150;21.620;2022-07-10T01:41:25;2.75;;;1.57;;
37275;SDS011;23166;51.150;21.620;2022-07-10T01:43:52;4.30;;;1.62;;
37275;SDS011;23166;51.150;21.620;2022-07-10T01:46:19;2.75;;;1.62;;
37275;SDS011;23166;51.150;21.620;2022-07-10T01:48:46;2.58;;;1.98;;
37275;SDS011;23166;51.150;21.620;2022-07-10T01:51:13;2.22;;;1.40;;
37275;SDS011;23166;51.150;21.620;2022-07-10T01:53:39;2.22;;;1.52;;
37275;SDS011;23166;51.150;21.620;2022-07-10T01:56:07;3.40;;;2.05;;
37275;SDS011;23166;51.150;21.620;2022-07-10T01:58:35;4.78;;;2.05;;
37275;SDS011;23166;51.150;21.620;2022-07-10T02:01:03;3.75;;;2.27;;
37275;SDS011;23166;51.150;21.620;2022-07-10T02:03:30;4.75;;;1.90;;
37275;SDS011;23166;51.150;21.620;2022-07-10T02:06:15;3.40;;;1.95;;
37275;SDS011;23166;51.150;21.620;2022-07-10T02:08:41;2.85;;;1.50;;
37275;SDS011;23166;51.150;21.620;2022-07-10T02:11:08;2.60;;;2.02;;
37275;SDS011;23166;51.150;21.620;2022-07-10T02:13:35;3.40;;;2.35;;
37275;SDS011;23166;51.150;21.620;2022-07-10T02:16:01;8.25;;;2.45;;
37275;SDS011;23166;51.150;21.620;2022-07-10T02:18:27;3.10;;;1.60;;
37275;SDS011;23166;51.150;21.620;2022-07-10T02:20:54;2.47;;;1.70;;
37275;SDS011;23166;51.150;21.620;2022-07-10T02:23:21;3.17;;;2.02;;
37275;SDS011;23166;51.150;21.620;2022-07-10T02:25:47;7.00;;;2.40;;
37275;SDS011;23166;51.150;21.620;2022-07-10T02:28:13;3.05;;;2.10;;
37275;SDS011;23166;51.150;21.620;2022-07-10T02:30:40;2.72;;;2.00;;
37275;SDS011;23166;51.150;21.620;2022-07-10T02:33:08;2.27;;;1.65;;
37275;SDS011;23166;51.150;21.620;2022-07-10T02:35:34;2.15;;;1.55;;
37275;SDS011;23166;51.150;21.620;2022-07-10T02:38:01;3.20;;;1.98;;
37275;SDS011;23166;51.150;21.620;2022-07-10T02:40:27;2.87;;;1.95;;
37275;SDS011;23166;51.150;21.620;2022-07-10T02:42:53;6.47;;;2.50;;
37275;SDS011;23166;51.150;21.620;2022-07-10T02:45:20;5.95;;;2.05;;
37275;SDS011;23166;51.150;21.620;2022-07-10T02:47:46;4.10;;;2.02;;
37275;SDS011;23166;51.150;21.620;2022-07-10T02:50:13;3.95;;;1.82;;
37275;SDS011;23166;51.150;21.620;2022-07-10T02:52:40;5.67;;;1.80;;
37275;SDS011;23166;51.150;21.620;2022-07-10T02:55:06;3.90;;;2.17;;
37275;SDS011;23166;51.150;21.620;2022-07-10T02:59:59;1.90;;;1.75;;
37275;SDS011;23166;51.150;21.620;2022-07-10T03:02:26;3.50;;;2.10;;
37275;SDS011;23166;51.150;21.620;2022-07-10T03:04:52;4.58;;;2.17;;
37275;SDS011;23166;51.150;21.620;2022-07-10T03:07:19;2.15;;;1.52;;
37275;SDS011;23166;51.150;21.620;2022-07-10T03:09:45;3.30;;;1.60;;
37275;SDS011;23166;51.150;21.620;2022-07-10T03:12:11;2.55;;;1.50;;
37275;SDS011;23166;51.150;21.620;2022-07-10T03:14:38;2.08;;;1.67;;
37275;SDS011;23166;51.150;21.620;2022-07-10T03:17:04;2.45;;;1.87;;
37275;SDS011;23166;51.150;21.620;2022-07-10T03:19:31;2.45;;;1.80;;
37275;SDS011;23166;51.150;21.620;2022-07-10T03:21:59;1.80;;;1.70;;
37275;SDS011;23166;51.150;21.620;2022-07-10T03:24:25;6.78;;;1.92;;
37275;SDS011;23166;51.150;21.620;2022-07-10T03:26:51;2.58;;;1.65;;
37275;SDS011;23166;51.150;21.620;2022-07-10T03:29:18;2.22;;;1.55;;
37275;SDS011;23166;51.150;21.620;2022-07-10T03:31:44;1.70;;;1.60;;
37275;SDS011;23166;51.150;21.620;2022-07-10T03:34:11;6.92;;;2.10;;
37275;SDS011;23166;51.150;21.620;2022-07-10T03:36:37;2.05;;;1.52;;
37275;SDS011;23166;51.150;21.620;2022-07-10T03:39:03;2.70;;;1.47;;
37275;SDS011;23166;51.150;21.620;2022-07-10T03:41:30;2.17;;;1.72;;
37275;SDS011;23166;51.150;21.620;2022-07-10T03:43:56;1.45;;;1.35;;
37275;SDS011;23166;51.150;21.620;2022-07-10T03:46:23;1.27;;;1.17;;
37275;SDS011;23166;51.150;21.620;2022-07-10T03:48:49;1.70;;;1.35;;
37275;SDS011;23166;51.150;21.620;2022-07-10T03:51:15;2.33;;;1.67;;
37275;SDS011;23166;51.150;21.620;2022-07-10T03:53:42;2.70;;;1.77;;
37275;SDS011;23166;51.150;21.620;2022-07-10T03:56:08;1.85;;;1.45;;
37275;SDS011;23166;51.150;21.620;2022-07-10T03:58:35;2.22;;;1.50;;
37275;SDS011;23166;51.150;21.620;2022-07-10T04:01:01;1.45;;;0.93;;
37275;SDS011;23166;51.150;21.620;2022-07-10T04:03:27;5.15;;;1.42;;
37275;SDS011;23166;51.150;21.620;2022-07-10T04:05:54;3.58;;;1.55;;
37275;SDS011;23166;51.150;21.620;2022-07-10T04:08:20;7.47;;;1.60;;
37275;SDS011;23166;51.150;21.620;2022-07-10T04:10:46;1.90;;;1.77;;
37275;SDS011;23166;51.150;21.620;2022-07-10T04:13:14;2.52;;;1.60;;
37275;SDS011;23166;51.150;21.620;2022-07-10T04:15:41;2.55;;;1.40;;
37275;SDS011;23166;51.150;21.620;2022-07-10T04:18:07;1.75;;;1.30;;
37275;SDS011;23166;51.150;21.620;2022-07-10T04:20:33;2.20;;;1.32;;
37275;SDS011;23166;51.150;21.620;2022-07-10T04:23:00;2.15;;;1.52;;
37275;SDS011;23166;51.150;21.620;2022-07-10T04:25:26;1.65;;;1.15;;
37275;SDS011;23166;51.150;21.620;2022-07-10T04:27:53;4.35;;;1.37;;
37275;SDS011;23166;51.150;21.620;2022-07-10T04:30:19;2.80;;;1.72;;
37275;SDS011;23166;51.150;21.620;2022-07-10T04:32:45;3.20;;;1.47;;
37275;SDS011;23166;51.150;21.620;2022-07-10T04:35:12;1.50;;;1.30;;
37275;SDS011;23166;51.150;21.620;2022-07-10T04:37:38;2.40;;;0.95;;
37275;SDS011;23166;51.150;21.620;2022-07-10T04:40:05;1.98;;;1.25;;
37275;SDS011;23166;51.150;21.620;2022-07-10T04:42:32;3.67;;;1.10;;
37275;SDS011;23166;51.150;21.620;2022-07-10T04:44:59;1.55;;;1.22;;
37275;SDS011;23166;51.150;21.620;2022-07-10T04:47:25;1.95;;;1.20;;
37275;SDS011;23166;51.150;21.620;2022-07-10T04:49:51;1.27;;;1.17;;
37275;SDS011;23166;51.150;21.620;2022-07-10T04:52:18;3.83;;;1.42;;
37275;SDS011;23166;51.150;21.620;2022-07-10T04:54:44;1.75;;;1.12;;
37275;SDS011;23166;51.150;21.620;2022-07-10T04:57:10;3.55;;;1.10;;
37275;SDS011;23166;51.150;21.620;2022-07-10T04:59:37;1.57;;;1.12;;
37275;SDS011;23166;51.150;21.620;2022-07-10T05:02:03;2.02;;;1.40;;
37275;SDS011;23166;51.150;21.620;2022-07-10T05:04:30;3.15;;;1.17;;
37275;SDS011;23166;51.150;21.620;2022-07-10T05:06:56;2.25;;;1.42;;
37275;SDS011;23166;51.150;21.620;2022-07-10T05:09:23;3.20;;;1.27;;
37275;SDS011;23166;51.150;21.620;2022-07-10T05:11:49;2.33;;;1.27;;
37275;SDS011;23166;51.150;21.620;2022-07-10T05:14:16;2.00;;;1.15;;
37275;SDS011;23166;51.150;21.620;2022-07-10T05:16:42;1.27;;;1.17;;
37275;SDS011;23166;51.150;21.620;2022-07-10T05:19:09;1.20;;;0.93;;
37275;SDS011;23166;51.150;21.620;2022-07-10T05:21:35;4.25;;;1.25;;
37275;SDS011;23166;51.150;21.620;2022-07-10T05:24:02;0.85;;;0.80;;
37275;SDS011;23166;51.150;21.620;2022-07-10T05:26:28;4.12;;;1.35;;
37275;SDS011;23166;51.150;21.620;2022-07-10T05:28:54;2.25;;;1.02;;
37275;SDS011;23166;51.150;21.620;2022-07-10T05:31:21;1.35;;;0.85;;
37275;SDS011;23166;51.150;21.620;2022-07-10T05:33:47;1.45;;;1.35;;
37275;SDS011;23166;51.150;21.620;2022-07-10T05:36:14;1.90;;;1.20;;
37275;SDS011;23166;51.150;21.620;2022-07-10T05:38:40;2.30;;;1.37;;
37275;SDS011;23166;51.150;21.620;2022-07-10T05:41:06;1.85;;;1.32;;
37275;SDS011;23166;51.150;21.620;2022-07-10T05:43:33;2.00;;;1.20;;
37275;SDS011;23166;51.150;21.620;2022-07-10T05:45:59;1.40;;;1.30;;
37275;SDS011;23166;51.150;21.620;2022-07-10T05:48:25;0.93;;;0.90;;
37275;SDS011;23166;51.150;21.620;2022-07-10T05:50:52;4.78;;;1.10;;
37275;SDS011;23166;51.150;21.620;2022-07-10T05:53:18;5.08;;;2.15;;
37275;SDS011;23166;51.150;21.620;2022-07-10T05:55:47;3.55;;;1.37;;
37275;SDS011;23166;51.150;21.620;2022-07-10T05:58:14;1.82;;;1.15;;
37275;SDS011;23166;51.150;21.620;2022-07-10T06:00:41;1.72;;;1.00;;
37275;SDS011;23166;51.150;21.620;2022-07-10T06:03:11;1.57;;;1.02;;
37275;SDS011;23166;51.150;21.620;2022-07-10T06:05:38;1.42;;;1.20;;
37275;SDS011;23166;51.150;21.620;2022-07-10T06:08:04;1.02;;;0.90;;
37275;SDS011;23166;51.150;21.620;2022-07-10T06:10:31;2.00;;;1.27;;
37275;SDS011;23166;51.150;21.620;2022-07-10T06:12:57;1.30;;;0.88;;
37275;SDS011;23166;51.150;21.620;2022-07-10T06:15:23;3.20;;;0.98;;
37275;SDS011;23166;51.150;21.620;2022-07-10T06:17:50;4.30;;;1.85;;
37275;SDS011;23166;51.150;21.620;2022-07-10T06:20:16;0.80;;;0.65;;
37275;SDS011;23166;51.150;21.620;2022-07-10T06:22:43;1.00;;;0.90;;
37275;SDS011;23166;51.150;21.620;2022-07-10T06:25:09;4.15;;;0.95;;
37275;SDS011;23166;51.150;21.620;2022-07-10T06:27:37;1.77;;;1.07;;
37275;SDS011;23166;51.150;21.620;2022-07-10T06:30:04;1.67;;;1.30;;
37275;SDS011;23166;51.150;21.620;2022-07-10T06:34:57;1.35;;;1.25;;
37275;SDS011;23166;51.150;21.620;2022-07-10T06:37:23;2.72;;;1.20;;
37275;SDS011;23166;51.150;21.620;2022-07-10T06:39:50;1.40;;;1.02;;
37275;SDS011;23166;51.150;21.620;2022-07-10T06:42:16;2.27;;;1.05;;
37275;SDS011;23166;51.150;21.620;2022-07-10T06:44:43;0.95;;;0.88;;
37275;SDS011;23166;51.150;21.620;2022-07-10T06:47:11;1.90;;;1.50;;
37275;SDS011;23166;51.150;21.620;2022-07-10T06:49:58;3.12;;;1.10;;
37275;SDS011;23166;51.150;21.620;2022-07-10T06:54:52;1.72;;;1.17;;
37275;SDS011;23166;51.150;21.620;2022-07-10T06:57:18;3.20;;;1.45;;
37275;SDS011;23166;51.150;21.620;2022-07-10T06:59:45;1.17;;;1.10;;
37275;SDS011;23166;51.150;21.620;2022-07-10T07:02:12;3.10;;;1.25;;
37275;SDS011;23166;51.150;21.620;2022-07-10T07:04:39;1.92;;;1.45;;
37275;SDS011;23166;51.150;21.620;2022-07-10T07:07:05;1.65;;;0.95;;
37275;SDS011;23166;51.150;21.620;2022-07-10T07:09:31;2.87;;;1.40;;
37275;SDS011;23166;51.150;21.620;2022-07-10T07:11:58;2.60;;;1.20;;
37275;SDS011;23166;51.150;21.620;2022-07-10T07:14:24;3.72;;;1.00;;
37275;SDS011;23166;51.150;21.620;2022-07-10T07:16:51;2.90;;;0.72;;
37275;SDS011;23166;51.150;21.620;2022-07-10T07:19:25;2.00;;;1.20;;
37275;SDS011;23166;51.150;21.620;2022-07-10T07:21:58;3.20;;;1.62;;
37275;SDS011;23166;51.150;21.620;2022-07-10T07:24:43;1.37;;;1.27;;
37275;SDS011;23166;51.150;21.620;2022-07-10T07:27:11;1.32;;;1.20;;
37275;SDS011;23166;51.150;21.620;2022-07-10T07:29:38;1.40;;;1.00;;
37275;SDS011;23166;51.150;21.620;2022-07-10T07:32:04;1.05;;;1.00;;
37275;SDS011;23166;51.150;21.620;2022-07-10T07:34:31;1.62;;;1.30;;
37275;SDS011;23166;51.150;21.620;2022-07-10T07:36:57;1.20;;;0.93;;
37275;SDS011;23166;51.150;21.620;2022-07-10T07:39:24;3.90;;;0.93;;
37275;SDS011;23166;51.150;21.620;2022-07-10T07:41:50;1.42;;;1.32;;
37275;SDS011;23166;51.150;21.620;2022-07-10T07:44:17;1.72;;;1.15;;
37275;SDS011;23166;51.150;21.620;2022-07-10T07:46:43;1.22;;;1.10;;
37275;SDS011;23166;51.150;21.620;2022-07-10T07:49:10;2.75;;;2.02;;
37275;SDS011;23166;51.150;21.620;2022-07-10T07:51:36;2.80;;;1.17;;
37275;SDS011;23166;51.150;21.620;2022-07-10T07:54:03;2.12;;;1.32;;
37275;SDS011;23166;51.150;21.620;2022-07-10T07:56:29;1.50;;;1.00;;
37275;SDS011;23166;51.150;21.620;2022-07-10T07:58:56;3.05;;;0.80;;
37275;SDS011;23166;51.150;21.620;2022-07-10T08:01:22;1.55;;;0.90;;
37275;SDS011;23166;51.150;21.620;2022-07-10T08:03:48;2.22;;;0.90;;
37275;SDS011;23166;51.150;21.620;2022-07-10T08:06:15;2.60;;;0.60;;
37275;SDS011;23166;51.150;21.620;2022-07-10T08:11:08;1.35;;;0.78;;
37275;SDS011;23166;51.150;21.620;2022-07-10T08:13:35;0.75;;;0.75;;
37275;SDS011;23166;51.150;21.620;2022-07-10T08:16:01;5.55;;;1.02;;
37275;SDS011;23166;51.150;21.620;2022-07-10T08:18:27;1.72;;;1.22;;
37275;SDS011;23166;51.150;21.620;2022-07-10T08:20:54;4.37;;;1.15;;
37275;SDS011;23166;51.150;21.620;2022-07-10T08:23:20;1.90;;;1.25;;
37275;SDS011;23166;51.150;21.620;2022-07-10T08:25:47;3.58;;;1.20;;
37275;SDS011;23166;51.150;21.620;2022-07-10T08:28:13;1.00;;;1.00;;
37275;SDS011;23166;51.150;21.620;2022-07-10T08:30:40;1.72;;;0.90;;
37275;SDS011;23166;51.150;21.620;2022-07-10T08:33:07;2.33;;;1.30;;
37275;SDS011;23166;51.150;21.620;2022-07-10T08:35:34;1.17;;;0.78;;
37275;SDS011;23166;51.150;21.620;2022-07-10T08:38:00;0.72;;;0.72;;
37275;SDS011;23166;51.150;21.620;2022-07-10T08:40:28;1.05;;;0.95;;
37275;SDS011;23166;51.150;21.620;2022-07-10T08:42:57;0.82;;;0.82;;
37275;SDS011;23166;51.150;21.620;2022-07-10T08:45:23;6.42;;;1.30;;
37275;SDS011;23166;51.150;21.620;2022-07-10T08:47:50;2.05;;;1.10;;
37275;SDS011;23166;51.150;21.620;2022-07-10T08:55:38;3.10;;;1.20;;
37275;SDS011;23166;51.150;21.620;2022-07-10T09:00:33;3.98;;;1.50;;
37275;SDS011;23166;51.150;21.620;2022-07-10T09:03:00;6.45;;;1.40;;
37275;SDS011;23166;51.150;21.620;2022-07-10T09:05:26;3.65;;;1.22;;
37275;SDS011;23166;51.150;21.620;2022-07-10T09:07:53;0.90;;;0.72;;
37275;SDS011;23166;51.150;21.620;2022-07-10T09:12:49;3.67;;;1.17;;
37275;SDS011;23166;51.150;21.620;2022-07-10T09:15:22;1.90;;;0.70;;
37275;SDS011;23166;51.150;21.620;2022-07-10T09:17:57;1.65;;;0.78;;
37275;SDS011;23166;51.150;21.620;2022-07-10T09:20:32;1.22;;;0.70;;
37275;SDS011;23166;51.150;21.620;2022-07-10T09:23:09;3.58;;;0.80;;
37275;SDS011;23166;51.150;21.620;2022-07-10T09:25:51;1.82;;;0.65;;
37275;SDS011;23166;51.150;21.620;2022-07-10T09:28:19;0.40;;;0.40;;
37275;SDS011;23166;51.150;21.620;2022-07-10T09:30:47;0.50;;;0.50;;
37275;SDS011;23166;51.150;21.620;2022-07-10T09:36:08;0.42;;;0.40;;
37275;SDS011;23166;51.150;21.620;2022-07-10T09:41:27;1.87;;;0.53;;
37275;SDS011;23166;51.150;21.620;2022-07-10T09:44:07;0.62;;;0.62;;
37275;SDS011;23166;51.150;21.620;2022-07-10T09:46:35;0.40;;;0.40;;
37275;SDS011;23166;51.150;21.620;2022-07-10T09:51:39;0.60;;;0.60;;
37275;SDS011;23166;51.150;21.620;2022-07-10T09:54:07;1.07;;;0.50;;
37275;SDS011;23166;51.150;21.620;2022-07-10T09:56:39;1.67;;;0.40;;
37275;SDS011;23166;51.150;21.620;2022-07-10T09:59:13;7.72;;;0.82;;
37275;SDS011;23166;51.150;21.620;2022-07-10T10:01:37;1.02;;;0.40;;
37275;SDS011;23166;51.150;21.620;2022-07-10T10:04:09;0.88;;;0.42;;
37275;SDS011;23166;51.150;21.620;2022-07-10T10:06:37;0.95;;;0.70;;
37275;SDS011;23166;51.150;21.620;2022-07-10T10:09:07;0.30;;;0.30;;
37275;SDS011;23166;51.150;21.620;2022-07-10T10:11:39;0.35;;;0.30;;
37275;SDS011;23166;51.150;21.620;2022-07-10T10:14:08;1.90;;;0.72;;
37275;SDS011;23166;51.150;21.620;2022-07-10T10:16:35;0.40;;;0.40;;
37275;SDS011;23166;51.150;21.620;2022-07-10T10:19:03;0.62;;;0.62;;
37275;SDS011;23166;51.150;21.620;2022-07-10T10:21:51;0.30;;;0.30;;
37275;SDS011;23166;51.150;21.620;2022-07-10T10:24:19;1.27;;;0.30;;
37275;SDS011;23166;51.150;21.620;2022-07-10T10:26:47;0.95;;;0.95;;
37275;SDS011;23166;51.150;21.620;2022-07-10T10:29:14;0.88;;;0.53;;
37275;SDS011;23166;51.150;21.620;2022-07-10T10:31:41;2.67;;;0.47;;
37275;SDS011;23166;51.150;21.620;2022-07-10T10:34:08;0.70;;;0.50;;
37275;SDS011;23166;51.150;21.620;2022-07-10T10:41:42;1.60;;;0.30;;
37275;SDS011;23166;51.150;21.620;2022-07-10T10:52:18;1.55;;;0.35;;
37275;SDS011;23166;51.150;21.620;2022-07-10T11:00:12;0.50;;;0.50;;
37275;SDS011;23166;51.150;21.620;2022-07-10T11:02:40;0.42;;;0.42;;
37275;SDS011;23166;51.150;21.620;2022-07-10T11:07:55;1.80;;;0.30;;
37275;SDS011;23166;51.150;21.620;2022-07-10T11:15:39;8.30;;;1.10;;
37275;SDS011;23166;51.150;21.620;2022-07-10T11:18:10;2.95;;;0.50;;
37275;SDS011;23166;51.150;21.620;2022-07-10T11:20:48;1.98;;;0.47;;
37275;SDS011;23166;51.150;21.620;2022-07-10T11:31:20;2.35;;;0.60;;
37275;SDS011;23166;51.150;21.620;2022-07-10T11:33:51;0.30;;;0.30;;
37275;SDS011;23166;51.150;21.620;2022-07-10T11:36:20;0.78;;;0.60;;
37275;SDS011;23166;51.150;21.620;2022-07-10T11:38:55;0.57;;;0.50;;
37275;SDS011;23166;51.150;21.620;2022-07-10T11:41:25;1.98;;;0.50;;
37275;SDS011;23166;51.150;21.620;2022-07-10T11:46:25;1.57;;;0.60;;
37275;SDS011;23166;51.150;21.620;2022-07-10T11:48:50;1.57;;;0.70;;
37275;SDS011;23166;51.150;21.620;2022-07-10T11:54:04;0.57;;;0.57;;
37275;SDS011;23166;51.150;21.620;2022-07-10T11:56:38;1.90;;;0.53;;
37275;SDS011;23166;51.150;21.620;2022-07-10T12:01:41;1.15;;;0.62;;
37275;SDS011;23166;51.150;21.620;2022-07-10T12:04:10;2.55;;;0.68;;
37275;SDS011;23166;51.150;21.620;2022-07-10T12:06:38;1.12;;;0.40;;
37275;SDS011;23166;51.150;21.620;2022-07-10T12:09:07;1.15;;;0.93;;
37275;SDS011;23166;51.150;21.620;2022-07-10T12:11:41;2.80;;;0.90;;
37275;SDS011;23166;51.150;21.620;2022-07-10T12:14:10;1.22;;;0.93;;
37275;SDS011;23166;51.150;21.620;2022-07-10T12:16:40;2.77;;;1.22;;
37275;SDS011;23166;51.150;21.620;2022-07-10T12:19:10;1.92;;;0.57;;
37275;SDS011;23166;51.150;21.620;2022-07-10T12:21:38;1.10;;;0.78;;
37275;SDS011;23166;51.150;21.620;2022-07-10T12:24:06;4.37;;;0.53;;
37275;SDS011;23166;51.150;21.620;2022-07-10T12:26:34;0.78;;;0.72;;
37275;SDS011;23166;51.150;21.620;2022-07-10T12:29:02;1.22;;;1.12;;
37275;SDS011;23166;51.150;21.620;2022-07-10T12:31:31;1.07;;;0.98;;
37275;SDS011;23166;51.150;21.620;2022-07-10T12:33:59;3.85;;;0.70;;
37275;SDS011;23166;51.150;21.620;2022-07-10T12:42:01;4.58;;;0.70;;
37275;SDS011;23166;51.150;21.620;2022-07-10T12:47:12;3.85;;;0.70;;
37275;SDS011;23166;51.150;21.620;2022-07-10T12:49:50;0.50;;;0.50;;
37275;SDS011;23166;51.150;21.620;2022-07-10T12:52:19;2.65;;;0.75;;
37275;SDS011;23166;51.150;21.620;2022-07-10T12:54:46;0.55;;;0.55;;
37275;SDS011;23166;51.150;21.620;2022-07-10T12:57:12;0.65;;;0.62;;
37275;SDS011;23166;51.150;21.620;2022-07-10T12:59:39;2.77;;;0.57;;
37275;SDS011;23166;51.150;21.620;2022-07-10T13:02:20;0.70;;;0.50;;
37275;SDS011;23166;51.150;21.620;2022-07-10T13:04:56;1.12;;;1.07;;
37275;SDS011;23166;51.150;21.620;2022-07-10T13:07:30;1.90;;;0.50;;
37275;SDS011;23166;51.150;21.620;2022-07-10T13:10:05;1.27;;;0.60;;
37275;SDS011;23166;51.150;21.620;2022-07-10T13:12:30;0.78;;;0.45;;
37275;SDS011;23166;51.150;21.620;2022-07-10T13:14:56;2.80;;;1.15;;
37275;SDS011;23166;51.150;21.620;2022-07-10T13:17:22;0.78;;;0.47;;
37275;SDS011;23166;51.150;21.620;2022-07-10T13:19:49;2.47;;;0.72;;
37275;SDS011;23166;51.150;21.620;2022-07-10T13:22:17;2.35;;;0.45;;
37275;SDS011;23166;51.150;21.620;2022-07-10T13:24:43;0.55;;;0.37;;
37275;SDS011;23166;51.150;21.620;2022-07-10T13:27:10;2.05;;;0.90;;
37275;SDS011;23166;51.150;21.620;2022-07-10T13:29:36;0.50;;;0.50;;
37275;SDS011;23166;51.150;21.620;2022-07-10T13:32:04;2.92;;;0.68;;
37275;SDS011;23166;51.150;21.620;2022-07-10T13:34:31;0.42;;;0.40;;
37275;SDS011;23166;51.150;21.620;2022-07-10T13:36:58;0.33;;;0.33;;
37275;SDS011;23166;51.150;21.620;2022-07-10T13:39:25;1.98;;;0.60;;
37275;SDS011;23166;51.150;21.620;2022-07-10T13:44:18;0.78;;;0.55;;
37275;SDS011;23166;51.150;21.620;2022-07-10T13:49:11;0.45;;;0.45;;
37275;SDS011;23166;51.150;21.620;2022-07-10T13:51:37;0.95;;;0.80;;
37275;SDS011;23166;51.150;21.620;2022-07-10T13:54:04;1.00;;;0.20;;
37275;SDS011;23166;51.150;21.620;2022-07-10T13:56:30;0.50;;;0.20;;
37275;SDS011;23166;51.150;21.620;2022-07-10T13:58:57;0.17;;;0.15;;
37275;SDS011;23166;51.150;21.620;2022-07-10T14:01:23;0.80;;;0.20;;
37275;SDS011;23166;51.150;21.620;2022-07-10T14:03:49;0.15;;;0.15;;
37275;SDS011;23166;51.150;21.620;2022-07-10T14:06:18;1.57;;;0.30;;
37275;SDS011;23166;51.150;21.620;2022-07-10T14:08:44;0.50;;;0.30;;
37275;SDS011;23166;51.150;21.620;2022-07-10T14:11:11;9.53;;;1.27;;
37275;SDS011;23166;51.150;21.620;2022-07-10T14:13:38;1.87;;;0.98;;
37275;SDS011;23166;51.150;21.620;2022-07-10T14:16:04;0.53;;;0.42;;
37275;SDS011;23166;51.150;21.620;2022-07-10T14:18:30;6.25;;;0.42;;
37275;SDS011;23166;51.150;21.620;2022-07-10T14:21:01;1.35;;;0.28;;
37275;SDS011;23166;51.150;21.620;2022-07-10T14:23:30;0.95;;;0.15;;
37275;SDS011;23166;51.150;21.620;2022-07-10T14:25:59;1.20;;;0.47;;
37275;SDS011;23166;51.150;21.620;2022-07-10T14:28:25;0.37;;;0.33;;
37275;SDS011;23166;51.150;21.620;2022-07-10T14:30:52;0.40;;;0.40;;
37275;SDS011;23166;51.150;21.620;2022-07-10T14:33:19;2.52;;;0.28;;
37275;SDS011;23166;51.150;21.620;2022-07-10T14:35:46;3.08;;;0.30;;
37275;SDS011;23166;51.150;21.620;2022-07-10T14:38:12;0.53;;;0.30;;
37275;SDS011;23166;51.150;21.620;2022-07-10T14:40:39;1.98;;;0.45;;
37275;SDS011;23166;51.150;21.620;2022-07-10T14:43:05;0.20;;;0.20;;
37275;SDS011;23166;51.150;21.620;2022-07-10T14:45:32;0.17;;;0.17;;
37275;SDS011;23166;51.150;21.620;2022-07-10T14:47:58;1.05;;;0.30;;
37275;SDS011;23166;51.150;21.620;2022-07-10T14:50:25;0.40;;;0.40;;
37275;SDS011;23166;51.150;21.620;2022-07-10T14:52:51;0.40;;;0.40;;
37275;SDS011;23166;51.150;21.620;2022-07-10T14:55:17;1.42;;;0.50;;
37275;SDS011;23166;51.150;21.620;2022-07-10T14:57:44;0.53;;;0.37;;
37275;SDS011;23166;51.150;21.620;2022-07-10T15:00:11;2.05;;;0.28;;
37275;SDS011;23166;51.150;21.620;2022-07-10T15:02:38;0.78;;;0.40;;
37275;SDS011;23166;51.150;21.620;2022-07-10T15:05:04;0.50;;;0.50;;
37275;SDS011;23166;51.150;21.620;2022-07-10T15:09:57;1.05;;;0.90;;
37275;SDS011;23166;51.150;21.620;2022-07-10T15:12:24;2.33;;;0.53;;
37275;SDS011;23166;51.150;21.620;2022-07-10T15:14:50;0.33;;;0.30;;
37275;SDS011;23166;51.150;21.620;2022-07-10T15:17:17;1.27;;;0.25;;
37275;SDS011;23166;51.150;21.620;2022-07-10T15:19:43;3.70;;;0.50;;
37275;SDS011;23166;51.150;21.620;2022-07-10T15:22:09;0.20;;;0.20;;
37275;SDS011;23166;51.150;21.620;2022-07-10T15:24:36;1.25;;;0.23;;
37275;SDS011;23166;51.150;21.620;2022-07-10T15:27:03;0.30;;;0.30;;
37275;SDS011;23166;51.150;21.620;2022-07-10T15:29:29;0.20;;;0.20;;
37275;SDS011;23166;51.150;21.620;2022-07-10T15:31:56;0.30;;;0.30;;
37275;SDS011;23166;51.150;21.620;2022-07-10T15:34:22;0.10;;;0.10;;
37275;SDS011;23166;51.150;21.620;2022-07-10T15:36:49;3.35;;;1.00;;
37275;SDS011;23166;51.150;21.620;2022-07-10T15:39:16;0.35;;;0.30;;
37275;SDS011;23166;51.150;21.620;2022-07-10T15:41:42;2.60;;;1.30;;
37275;SDS011;23166;51.150;21.620;2022-07-10T15:44:11;0.20;;;0.20;;
37275;SDS011;23166;51.150;21.620;2022-07-10T15:46:38;0.42;;;0.30;;
37275;SDS011;23166;51.150;21.620;2022-07-10T15:49:04;0.10;;;0.10;;
37275;SDS011;23166;51.150;21.620;2022-07-10T15:51:31;0.65;;;0.20;;
37275;SDS011;23166;51.150;21.620;2022-07-10T15:53:58;0.20;;;0.20;;
37275;SDS011;23166;51.150;21.620;2022-07-10T15:56:25;0.80;;;0.20;;
37275;SDS011;23166;51.150;21.620;2022-07-10T15:58:51;0.30;;;0.17;;
37275;SDS011;23166;51.150;21.620;2022-07-10T16:01:32;0.15;;;0.13;;
37275;SDS011;23166;51.150;21.620;2022-07-10T16:03:56;0.98;;;0.35;;